Time;durP1;ratioP1;P1;durP2;ratioP2;P2;SDS_P1;SDS_P2;PMS_P1;PMS_P2;Temp;Humidity;BMP_temperature;BMP_pressure;BME280_temperature;BME280_humidity;BME280_pressure;Samples;Min_cycle;Max_cycle;Signal;HPM_P1;HPM_P2
2021/12/28 00:01:58;;;;;;;8.18;4.65;;;;;;;-5.62;59.59;100293.03;5088946;28;20024;-70
2021/12/28 00:04:24;;;;;;;8.23;5.05;;;;;;;-5.63;59.36;100286.06;5088511;28;20058;-67
2021/12/28 00:06:50;;;;;;;10.23;5.40;;;;;;;-5.65;59.06;100293.88;5089258;28;20028;-71
2021/12/28 00:09:15;;;;;;;9.15;5.03;;;;;;;-5.66;59.14;100288.69;5090309;28;20020;-71
2021/12/28 00:11:41;;;;;;;9.50;5.40;;;;;;;-5.72;59.29;100275.69;5090179;28;20439;-71
2021/12/28 00:14:07;;;;;;;12.23;5.68;;;;;;;-5.63;58.79;100299.13;5090520;28;20032;-70
2021/12/28 00:19:19;;;;;;;11.48;5.53;;;;;;;-5.65;58.88;100295.66;5078715;28;20499;-70
2021/12/28 00:21:44;;;;;;;11.38;5.55;;;;;;;-5.67;58.58;100287.81;5090473;28;20131;-72
2021/12/28 00:24:09;;;;;;;10.35;4.72;;;;;;;-5.68;58.97;100291.31;5089992;28;20076;-72
2021/12/28 00:26:35;;;;;;;9.73;5.13;;;;;;;-5.67;58.54;100294.75;5090490;28;20024;-69
2021/12/28 00:29:00;;;;;;;9.48;4.88;;;;;;;-5.66;58.79;100292.16;5090303;28;20040;-71
2021/12/28 00:31:26;;;;;;;9.70;4.95;;;;;;;-5.88;58.56;100254.03;5089857;28;20138;-70
2021/12/28 00:33:53;;;;;;;8.73;4.90;;;;;;;-5.67;58.72;100299.97;5090878;28;20157;-70
2021/12/28 00:36:19;;;;;;;10.07;5.28;;;;;;;-5.72;58.61;100288.72;5088725;28;20076;-71
2021/12/28 00:38:45;;;;;;;11.18;4.65;;;;;;;-5.70;58.94;100300.88;5089802;28;20923;-71
2021/12/28 00:41:10;;;;;;;11.90;5.45;;;;;;;-5.66;58.43;100302.59;5090398;28;20200;-71
2021/12/28 00:43:37;;;;;;;10.07;5.07;;;;;;;-5.69;58.33;100300.00;5075352;28;20035;-70
2021/12/28 00:46:04;;;;;;;8.38;4.70;;;;;;;-5.67;58.06;100298.25;5069933;28;20028;-71
2021/12/28 00:48:30;;;;;;;10.40;5.50;;;;;;;-5.68;58.15;100287.81;5073166;28;20098;-71
2021/12/28 00:50:56;;;;;;;10.13;4.80;;;;;;;-5.76;58.44;100273.09;5074076;28;20044;-68
2021/12/28 00:53:22;;;;;;;7.60;4.95;;;;;;;-5.96;58.08;100249.75;5073665;28;20123;-71
2021/12/28 00:55:48;;;;;;;9.55;4.63;;;;;;;-5.76;57.72;100285.28;5073278;28;20107;-70
2021/12/28 00:58:14;;;;;;;6.95;4.53;;;;;;;-5.74;57.97;100282.66;5073766;28;20033;-69
2021/12/28 01:00:40;;;;;;;6.93;4.10;;;;;;;-5.77;57.84;100281.78;5073596;28;20362;-70
2021/12/28 01:03:07;;;;;;;7.53;3.88;;;;;;;-5.83;56.85;100286.16;5072082;28;20029;-69
2021/12/28 01:05:33;;;;;;;8.80;4.28;;;;;;;-5.86;57.77;100292.28;5073230;28;20116;-69
2021/12/28 01:07:59;;;;;;;7.60;3.67;;;;;;;-5.88;58.05;100295.78;5073759;28;20024;-71
2021/12/28 01:10:29;;;;;;;6.32;3.53;;;;;;;-5.87;58.07;100298.38;5073929;28;20037;-71
2021/12/28 01:12:55;;;;;;;10.02;4.60;;;;;;;-5.87;58.09;100289.69;5073472;28;20097;-71
2021/12/28 01:15:23;;;;;;;10.98;4.38;;;;;;;-5.84;57.79;100302.69;5072804;28;20032;-70
2021/12/28 01:17:49;;;;;;;8.35;4.70;;;;;;;-5.85;58.10;100298.34;5073374;28;20036;-71
2021/12/28 01:20:16;;;;;;;8.82;5.00;;;;;;;-5.77;58.27;100312.25;5073563;28;20052;-70
2021/12/28 01:22:43;;;;;;;9.15;4.53;;;;;;;-5.77;58.25;100309.63;5072970;28;20057;-69
2021/12/28 01:25:11;;;;;;;9.18;4.72;;;;;;;-5.74;58.26;100308.72;5073234;28;20031;-71
2021/12/28 01:27:37;;;;;;;9.68;4.68;;;;;;;-5.76;58.03;100312.22;5073412;28;20085;-71
2021/12/28 01:30:05;;;;;;;10.02;5.25;;;;;;;-5.86;58.24;100296.63;5073031;28;20043;-71
2021/12/28 01:32:31;;;;;;;9.90;4.97;;;;;;;-5.73;58.06;100316.56;5073006;28;20466;-72
2021/12/28 01:34:56;;;;;;;9.25;4.70;;;;;;;-5.73;58.06;100321.78;5073124;28;20040;-71
2021/12/28 01:37:22;;;;;;;12.55;5.40;;;;;;;-5.73;58.56;100332.22;5073015;28;20040;-69
2021/12/28 01:39:47;;;;;;;10.02;4.82;;;;;;;-5.77;58.45;100320.91;5072789;28;20024;-70
2021/12/28 01:42:13;;;;;;;9.70;5.05;;;;;;;-5.73;58.66;100332.22;5072643;28;20445;-70
2021/12/28 01:44:38;;;;;;;10.27;5.15;;;;;;;-5.83;58.94;100327.91;5072493;28;20032;-71
2021/12/28 01:47:04;;;;;;;10.38;5.25;;;;;;;-5.82;59.13;100327.03;5071758;28;20143;-71
2021/12/28 01:49:30;;;;;;;11.30;5.32;;;;;;;-5.86;59.04;100326.19;5072887;28;20028;-70
2021/12/28 01:51:57;;;;;;;9.63;5.03;;;;;;;-5.89;59.38;100325.31;5072557;28;20050;-70
2021/12/28 01:54:22;;;;;;;11.52;5.70;;;;;;;-5.85;58.94;100337.47;5072188;28;20028;-69
2021/12/28 01:56:48;;;;;;;9.98;5.35;;;;;;;-5.87;58.97;100336.63;5071177;28;20429;-70
2021/12/28 01:59:18;;;;;;;10.45;5.30;;;;;;;-5.90;59.20;100340.13;5088197;28;20027;-72
2021/12/28 02:01:44;;;;;;;11.88;5.88;;;;;;;-5.88;59.44;100342.72;5092517;28;20040;-69
2021/12/28 02:04:18;;;;;;;11.10;5.20;;;;;;;-5.86;59.61;100351.38;5093816;28;20028;-70
2021/12/28 02:06:44;;;;;;;8.60;4.73;;;;;;;-5.98;59.71;100329.72;5113066;28;20016;-69
2021/12/28 02:09:10;;;;;;;10.10;5.00;;;;;;;-5.88;59.15;100340.97;5096512;28;20024;-71
2021/12/28 02:11:37;;;;;;;10.45;5.43;;;;;;;-5.85;59.19;100353.13;5091994;28;20028;-69
2021/12/28 02:14:08;;;;;;;9.43;5.13;;;;;;;-5.87;59.12;100354.88;5091021;28;20028;-70
2021/12/28 02:16:39;;;;;;;11.88;5.72;;;;;;;-5.86;58.92;100356.59;5092578;28;20103;-69
2021/12/28 02:19:07;;;;;;;11.32;5.53;;;;;;;-5.91;59.12;100347.06;5092453;28;20032;-69
2021/12/28 02:21:33;;;;;;;13.05;5.82;;;;;;;-5.89;59.30;100356.63;5092381;28;20032;-71
2021/12/28 02:24:00;;;;;;;12.90;5.43;;;;;;;-5.83;59.22;100362.69;5092872;28;20032;-71
2021/12/28 02:26:27;;;;;;;11.65;6.28;;;;;;;-5.90;59.15;100363.59;5092298;28;20058;-71
2021/12/28 02:28:53;;;;;;;14.70;6.53;;;;;;;-5.96;59.33;100367.09;5102046;28;20028;-69
2021/12/28 02:31:19;;;;;;;11.15;5.63;;;;;;;-6.02;59.81;100364.53;5102890;28;20032;-70
2021/12/28 02:33:48;;;;;;;11.23;6.45;;;;;;;-6.08;59.90;100356.72;5096691;28;20031;-70
2021/12/28 02:36:14;;;;;;;13.45;6.97;;;;;;;-6.14;59.55;100368.06;5092410;28;20344;-70
2021/12/28 02:38:41;;;;;;;18.63;7.28;;;;;;;-6.26;60.10;100360.25;5092074;28;20036;-69
2021/12/28 02:41:09;;;;;;;14.27;7.22;;;;;;;-6.36;60.16;100362.03;5091693;28;20362;-71
2021/12/28 02:43:35;;;;;;;16.25;7.10;;;;;;;-6.54;60.50;100348.16;5091631;28;20035;-72
2021/12/28 02:46:02;;;;;;;17.40;7.97;;;;;;;-6.67;60.84;100355.13;5092361;28;20028;-70
2021/12/28 02:48:29;;;;;;;14.52;7.25;;;;;;;-6.72;61.60;100369.91;5091748;28;20496;-70
2021/12/28 02:51:01;;;;;;;14.57;6.90;;;;;;;-6.97;61.82;100346.47;5091379;28;20044;-71
2021/12/28 02:53:27;;;;;;;14.88;6.70;;;;;;;-6.95;61.75;100375.97;5091924;28;20028;-71
2021/12/28 02:55:54;;;;;;;11.60;6.05;;;;;;;-7.03;62.30;100374.22;5091911;28;20032;-70
2021/12/28 02:58:23;;;;;;;15.63;6.97;;;;;;;-7.14;62.07;100382.91;5091211;28;20039;-72
2021/12/28 03:00:55;;;;;;;13.10;6.07;;;;;;;-7.24;62.48;100391.56;5091194;28;20232;-70
2021/12/28 03:03:25;;;;;;;13.82;6.40;;;;;;;-7.45;62.52;100366.38;5091718;28;20031;-70
2021/12/28 03:05:52;;;;;;;10.77;5.55;;;;;;;-7.50;62.77;100380.25;5091594;28;20346;-71
2021/12/28 03:08:21;;;;;;;13.05;5.40;;;;;;;-7.51;62.65;100390.63;5091317;28;20531;-72
2021/12/28 03:10:48;;;;;;;12.38;5.28;;;;;;;-7.46;62.90;100388.94;5090579;28;20334;-71
2021/12/28 03:13:19;;;;;;;11.23;5.22;;;;;;;-7.53;62.63;100394.97;5091902;28;20036;-72
2021/12/28 03:15:45;;;;;;;13.57;5.75;;;;;;;-7.67;62.82;100381.94;5090417;28;20071;-70
2021/12/28 03:18:11;;;;;;;10.70;5.13;;;;;;;-7.78;62.90;100374.09;5091068;28;20082;-71
2021/12/28 03:20:37;;;;;;;11.57;5.40;;;;;;;-7.77;62.60;100388.84;5091231;28;20481;-72
2021/12/28 03:23:03;;;;;;;9.68;5.13;;;;;;;-7.88;62.74;100382.75;5091730;28;20542;-71
2021/12/28 03:25:28;;;;;;;8.52;5.07;;;;;;;-7.98;62.68;100381.81;5091362;28;20200;-73
2021/12/28 03:27:54;;;;;;;12.73;5.72;;;;;;;-8.00;63.12;100389.59;5090994;28;20133;-72
2021/12/28 03:30:19;;;;;;;10.45;5.38;;;;;;;-8.05;63.14;100393.91;5089645;28;20362;-72
2021/12/28 03:32:46;;;;;;;11.93;5.50;;;;;;;-8.13;63.05;100393.03;5091243;28;20028;-70
2021/12/28 03:35:13;;;;;;;13.52;5.57;;;;;;;-8.16;63.13;100398.22;5091232;28;20488;-72
2021/12/28 03:37:40;;;;;;;10.77;4.97;;;;;;;-8.15;63.64;100400.78;5090659;28;20488;-72
2021/12/28 03:40:08;;;;;;;11.52;4.80;;;;;;;-8.15;63.37;100397.34;5090925;28;20039;-67
2021/12/28 03:42:35;;;;;;;9.40;4.88;;;;;;;-8.18;63.61;100379.16;5091530;28;20473;-70
2021/12/28 03:45:00;;;;;;;7.65;4.32;;;;;;;-8.11;63.40;100392.16;5091019;28;20213;-71
2021/12/28 03:47:26;;;;;;;9.25;4.47;;;;;;;-8.10;63.71;100393.03;5090578;28;20068;-72
2021/12/28 03:49:51;;;;;;;11.35;4.65;;;;;;;-8.07;63.22;100393.03;5089356;28;20089;-72
2021/12/28 03:52:17;;;;;;;8.27;4.20;;;;;;;-8.08;62.87;100388.72;5090846;28;20024;-70
2021/12/28 03:54:43;;;;;;;8.73;4.40;;;;;;;-8.08;62.95;100396.50;5090879;28;20027;-70
2021/12/28 03:57:08;;;;;;;9.75;4.28;;;;;;;-8.10;62.99;100393.03;5088992;28;20119;-72
2021/12/28 03:59:34;;;;;;;10.43;4.70;;;;;;;-8.16;63.28;100393.00;5090961;28;20370;-73
2021/12/28 04:01:59;;;;;;;8.20;4.72;;;;;;;-8.17;63.02;100397.31;5090409;28;20031;-71
2021/12/28 04:04:25;;;;;;;11.77;4.72;;;;;;;-8.23;63.08;100392.94;5090946;28;20135;-71
2021/12/28 04:06:50;;;;;;;11.13;5.10;;;;;;;-8.24;63.33;100403.34;5090692;28;20086;-71
2021/12/28 04:09:33;;;;;;;10.73;4.20;;;;;;;-8.27;63.85;100406.78;5090605;28;20078;-71
2021/12/28 04:11:59;;;;;;;11.13;4.35;;;;;;;-8.27;63.53;100417.19;5090834;28;20474;-69
2021/12/28 04:14:24;;;;;;;13.55;4.68;;;;;;;-8.32;63.71;100408.50;5090387;28;20103;-71
2021/12/28 04:16:50;;;;;;;8.77;4.68;;;;;;;-8.32;63.60;100415.41;5103922;28;20037;-69
2021/12/28 04:19:15;;;;;;;10.05;4.82;;;;;;;-8.37;63.61;100405.00;5099443;28;20066;-72
2021/12/28 04:21:41;;;;;;;10.02;4.45;;;;;;;-8.54;64.00;100376.38;5091623;28;20031;-71
2021/12/28 04:24:06;;;;;;;10.00;4.40;;;;;;;-8.42;64.08;100393.72;5090221;28;20258;-72
2021/12/28 04:26:32;;;;;;;12.20;4.53;;;;;;;-8.26;64.12;100399.88;5072782;28;20056;-70
2021/12/28 04:28:57;;;;;;;12.75;4.93;;;;;;;-8.14;63.95;100417.28;5073655;28;21028;-71
2021/12/28 04:31:23;;;;;;;12.13;5.70;;;;;;;-8.08;63.53;100412.97;5073776;28;20036;-71
2021/12/28 04:33:49;;;;;;;14.88;4.97;;;;;;;-8.02;63.40;100416.47;5078300;28;20473;-71
2021/12/28 04:36:16;;;;;;;11.40;4.70;;;;;;;-7.96;63.00;100422.56;5083367;28;20381;-72
2021/12/28 04:38:43;;;;;;;9.18;4.95;;;;;;;-7.88;63.38;100424.31;5083835;28;20085;-71
2021/12/28 04:41:10;;;;;;;11.20;5.00;;;;;;;-7.80;63.27;100433.91;5083812;28;20390;-67
2021/12/28 04:43:37;;;;;;;11.55;5.57;;;;;;;-7.71;63.41;100421.78;5082895;28;20448;-71
2021/12/28 04:46:03;;;;;;;11.80;5.35;;;;;;;-7.59;62.98;100421.84;5084924;28;20020;-72
2021/12/28 04:48:29;;;;;;;8.40;5.03;;;;;;;-7.45;62.98;100416.69;5083680;28;20900;-69
2021/12/28 04:50:55;;;;;;;10.77;5.60;;;;;;;-7.36;62.65;100419.31;5082299;28;20036;-72
2021/12/28 04:53:21;;;;;;;11.55;5.80;;;;;;;-7.24;62.81;100428.00;5078804;28;20029;-71
2021/12/28 04:55:50;;;;;;;10.95;5.68;;;;;;;-7.19;62.73;100421.09;5073157;28;20030;-70
2021/12/28 04:58:16;;;;;;;10.90;5.43;;;;;;;-7.21;62.55;100400.25;5074366;28;20485;-71
2021/12/28 05:00:44;;;;;;;11.23;5.95;;;;;;;-6.93;62.26;100433.25;5073749;28;20116;-72
2021/12/28 05:03:10;;;;;;;12.25;6.10;;;;;;;-6.83;62.09;100442.81;5074525;28;20389;-71
2021/12/28 05:05:36;;;;;;;14.15;7.15;;;;;;;-6.72;62.40;100441.97;5073828;28;20178;-71
2021/12/28 05:08:05;;;;;;;13.10;5.43;;;;;;;-6.65;62.28;100433.28;5073804;28;20119;-73
2021/12/28 05:10:32;;;;;;;10.60;5.18;;;;;;;-6.50;61.97;100437.59;5072453;28;20052;-73
2021/12/28 05:12:57;;;;;;;9.40;4.93;;;;;;;-6.43;61.87;100449.75;5072777;28;20109;-71
2021/12/28 05:15:23;;;;;;;13.52;5.50;;;;;;;-6.54;61.72;100417.66;5072939;28;20082;-73
2021/12/28 05:17:48;;;;;;;13.32;5.45;;;;;;;-6.28;61.69;100456.69;5073200;28;20029;-71
2021/12/28 05:20:14;;;;;;;10.35;5.45;;;;;;;-6.20;61.53;100457.56;5073319;28;20040;-73
2021/12/28 05:22:39;;;;;;;8.25;4.80;;;;;;;-6.12;61.49;100459.28;5073042;28;20446;-70
2021/12/28 05:25:06;;;;;;;9.73;4.65;;;;;;;-6.06;61.17;100467.06;5080081;28;20028;-70
2021/12/28 05:27:31;;;;;;;10.40;4.75;;;;;;;-6.03;60.83;100461.84;5086052;28;20032;-72
2021/12/28 05:29:57;;;;;;;13.15;6.45;;;;;;;-6.01;61.09;100462.75;5088351;28;20120;-72
2021/12/28 05:32:22;;;;;;;15.18;5.65;;;;;;;-5.96;60.67;100460.97;5084098;28;20411;-72
2021/12/28 05:34:48;;;;;;;10.07;5.60;;;;;;;-5.88;61.17;100473.97;5082017;28;20469;-70
2021/12/28 05:37:13;;;;;;;12.77;5.82;;;;;;;-5.84;60.97;100475.72;5080995;28;20024;-70
2021/12/28 05:39:39;;;;;;;13.27;5.78;;;;;;;-5.81;60.44;100480.91;5083972;28;20024;-73
2021/12/28 05:42:05;;;;;;;10.10;5.13;;;;;;;-5.81;60.83;100474.81;5081130;28;20021;-72
2021/12/28 05:44:31;;;;;;;14.13;5.93;;;;;;;-5.94;60.36;100442.69;5072474;28;20501;-71
2021/12/28 05:46:56;;;;;;;12.38;5.93;;;;;;;-5.71;60.58;100471.31;5072807;28;20056;-72
2021/12/28 05:49:22;;;;;;;11.77;5.72;;;;;;;-5.68;60.67;100476.53;5072463;28;20036;-71
2021/12/28 05:51:48;;;;;;;12.80;6.63;;;;;;;-5.66;60.66;100474.78;5072397;28;20401;-72
2021/12/28 05:54:14;;;;;;;12.10;5.75;;;;;;;-5.61;60.71;100482.59;5072382;28;20103;-67
2021/12/28 05:56:39;;;;;;;9.70;5.60;;;;;;;-5.65;60.22;100470.44;5068492;28;20032;-71
2021/12/28 05:59:05;;;;;;;10.68;5.68;;;;;;;-5.58;59.86;100481.69;5072179;28;20146;-72
2021/12/28 06:01:31;;;;;;;11.85;5.50;;;;;;;-5.75;60.14;100459.16;5076347;28;20024;-72
2021/12/28 06:03:56;;;;;;;10.88;5.40;;;;;;;-5.66;60.68;100477.38;5092175;28;20474;-72
2021/12/28 06:06:22;;;;;;;12.20;6.00;;;;;;;-5.56;60.54;100487.78;5085965;28;20333;-72
2021/12/28 06:08:47;;;;;;;10.75;5.32;;;;;;;-5.53;60.56;100480.81;5080288;28;20034;-72
2021/12/28 06:11:13;;;;;;;11.98;5.45;;;;;;;-5.51;60.70;100489.50;5083711;28;20393;-74
2021/12/28 06:13:43;;;;;;;11.23;5.00;;;;;;;-5.48;60.00;100488.63;5086667;28;20035;-72
2021/12/28 06:16:09;;;;;;;10.93;5.63;;;;;;;-5.45;59.76;100485.13;5082004;28;20362;-72
2021/12/28 06:18:35;;;;;;;12.70;5.70;;;;;;;-5.43;59.55;100480.75;5082220;28;20421;-73
2021/12/28 06:21:01;;;;;;;10.43;5.35;;;;;;;-5.42;60.13;100488.59;5085959;28;20268;-73
2021/12/28 06:23:27;;;;;;;11.15;5.47;;;;;;;-5.39;59.97;100493.81;5081671;28;20473;-69
2021/12/28 06:25:53;;;;;;;13.07;6.53;;;;;;;-5.41;59.96;100485.13;5083251;28;20427;-71
2021/12/28 06:28:18;;;;;;;10.75;5.07;;;;;;;-5.31;59.63;100498.13;5076454;28;20439;-72
2021/12/28 06:30:44;;;;;;;10.50;5.50;;;;;;;-5.28;59.58;100498.13;5071365;28;20028;-71
2021/12/28 06:33:10;;;;;;;9.52;5.28;;;;;;;-5.29;59.42;100504.22;5083129;28;20062;-73
2021/12/28 06:35:35;;;;;;;12.18;5.60;;;;;;;-5.48;59.34;100472.97;5086363;28;20036;-72
2021/12/28 06:38:01;;;;;;;11.55;5.05;;;;;;;-5.47;59.53;100472.94;5082720;28;20024;-72
2021/12/28 06:40:27;;;;;;;13.18;4.75;;;;;;;-5.27;59.63;100508.53;5080369;28;20071;-72
2021/12/28 06:42:53;;;;;;;10.27;4.82;;;;;;;-5.26;59.49;100504.19;5080834;28;20028;-71
2021/12/28 06:45:18;;;;;;;17.15;8.35;;;;;;;-5.24;59.64;100502.44;5079114;28;20032;-71
2021/12/28 06:47:44;;;;;;;10.95;5.57;;;;;;;-5.17;59.36;100511.13;5081691;28;20062;-75
2021/12/28 06:50:10;;;;;;;10.57;5.55;;;;;;;-5.09;59.20;100527.63;5082048;28;20125;-78
2021/12/28 06:52:38;;;;;;;13.13;5.63;;;;;;;-5.07;58.91;100526.72;5080533;28;20409;-75
2021/12/28 06:55:05;;;;;;;9.60;5.15;;;;;;;-5.03;59.01;100531.94;5080689;28;20062;-77
2021/12/28 06:57:30;;;;;;;10.35;4.90;;;;;;;-5.00;58.36;100521.47;5077365;28;20079;-74
2021/12/28 06:59:56;;;;;;;9.90;4.90;;;;;;;-5.00;58.03;100519.72;5080638;28;20071;-76
2021/12/28 07:02:21;;;;;;;8.25;4.28;;;;;;;-4.98;58.77;100525.81;5078353;28;20032;-71
2021/12/28 07:04:47;;;;;;;9.40;4.85;;;;;;;-4.95;58.13;100524.94;5079492;28;20028;-71
2021/12/28 07:07:13;;;;;;;7.32;4.95;;;;;;;-4.97;58.20;100516.25;5080694;28;20027;-73
2021/12/28 07:09:39;;;;;;;9.57;4.90;;;;;;;-4.88;57.92;100531.84;5079298;28;20028;-72
2021/12/28 07:12:05;;;;;;;9.18;4.75;;;;;;;-4.82;58.23;100536.19;5080323;28;20050;-72
2021/12/28 07:14:31;;;;;;;8.68;4.43;;;;;;;-4.84;57.52;100538.78;5081812;28;20063;-71
2021/12/28 07:16:57;;;;;;;8.07;4.57;;;;;;;-4.83;58.11;100529.22;5079527;28;20070;-71
2021/12/28 07:19:24;;;;;;;8.82;4.55;;;;;;;-4.92;58.04;100548.41;5079732;28;20032;-73
2021/12/28 07:21:50;;;;;;;9.65;4.60;;;;;;;-4.94;58.06;100539.72;5073587;28;20028;-71
2021/12/28 07:24:16;;;;;;;12.10;5.10;;;;;;;-4.99;57.61;100538.88;5071259;28;20025;-72
2021/12/28 07:26:42;;;;;;;8.48;4.57;;;;;;;-4.96;58.19;100549.31;5056103;28;20035;-72
2021/12/28 07:29:09;;;;;;;9.00;4.80;;;;;;;-4.92;57.63;100551.03;5100674;28;20094;-70
2021/12/28 07:31:34;;;;;;;9.60;4.88;;;;;;;-4.98;57.86;100551.06;5065289;28;20097;-73
2021/12/28 07:34:00;;;;;;;7.78;4.57;;;;;;;-4.96;57.18;100554.53;5059144;28;20033;-73
2021/12/28 07:36:26;;;;;;;10.27;4.95;;;;;;;-4.98;57.35;100551.91;5071012;28;20053;-74
2021/12/28 07:38:52;;;;;;;12.18;5.18;;;;;;;-4.90;57.74;100554.50;5078433;28;20115;-72
2021/12/28 07:41:17;;;;;;;8.32;5.00;;;;;;;-4.77;57.57;100560.53;5070622;28;20219;-72
2021/12/28 07:43:43;;;;;;;9.75;5.03;;;;;;;-4.66;57.28;100565.69;5070827;28;20029;-72
2021/12/28 07:46:09;;;;;;;10.60;5.07;;;;;;;-4.63;56.98;100563.06;5069504;28;20563;-69
2021/12/28 07:48:35;;;;;;;11.85;5.35;;;;;;;-4.57;57.26;100555.19;5067807;28;20228;-70
2021/12/28 07:51:01;;;;;;;12.63;5.03;;;;;;;-4.35;56.37;100568.97;5067849;28;20032;-67
2021/12/28 07:53:26;;;;;;;10.40;5.50;;;;;;;-4.17;56.13;100572.34;5068900;28;20177;-71
2021/12/28 07:55:52;;;;;;;11.13;4.75;;;;;;;-3.96;55.96;100567.81;5069951;28;20028;-74
2021/12/28 07:58:17;;;;;;;9.55;4.45;;;;;;;-3.99;55.31;100524.22;5072098;28;20035;-71
2021/12/28 08:00:43;;;;;;;10.85;5.25;;;;;;;-3.68;54.89;100559.72;5073608;28;20032;-65
2021/12/28 08:03:08;;;;;;;11.13;4.90;;;;;;;-3.69;54.74;100545.75;5072085;28;20168;-75
2021/12/28 08:05:36;;;;;;;11.80;4.47;;;;;;;-3.62;55.50;100554.41;5074112;28;20036;-72
2021/12/28 08:08:02;;;;;;;8.40;4.90;;;;;;;-3.55;55.17;100544.75;5072486;28;20028;-71
2021/12/28 08:10:28;;;;;;;13.88;5.30;;;;;;;-3.39;54.90;100541.03;5072122;28;20115;-73
2021/12/28 08:12:54;;;;;;;8.00;5.07;;;;;;;-3.17;54.88;100548.66;5073501;28;20576;-71
2021/12/28 08:15:21;;;;;;;8.95;4.88;;;;;;;-3.01;53.84;100553.72;5073524;28;20119;-73
2021/12/28 08:17:47;;;;;;;9.85;5.38;;;;;;;-2.96;54.06;100549.28;5068468;28;20032;-73
2021/12/28 08:20:14;;;;;;;13.18;5.70;;;;;;;-2.96;54.04;100555.41;5073677;28;20032;-74
2021/12/28 08:22:41;;;;;;;12.68;5.43;;;;;;;-2.93;53.64;100552.72;5073273;28;20123;-73
2021/12/28 08:25:07;;;;;;;11.02;5.68;;;;;;;-2.90;53.78;100554.41;5073625;28;20078;-74
2021/12/28 08:27:33;;;;;;;11.68;5.55;;;;;;;-2.99;53.51;100528.34;5072979;28;20067;-71
2021/12/28 08:29:59;;;;;;;11.80;5.35;;;;;;;-2.80;53.31;100544.69;5071953;28;20045;-70
2021/12/28 08:32:24;;;;;;;10.77;5.35;;;;;;;-2.78;53.51;100554.28;5073937;28;20024;-70
2021/12/28 08:34:50;;;;;;;12.30;5.80;;;;;;;-2.91;53.50;100532.59;5072831;28;20070;-71
2021/12/28 08:37:15;;;;;;;10.02;5.60;;;;;;;-2.75;53.34;100556.00;5072628;28;20116;-69
2021/12/28 08:39:41;;;;;;;10.40;5.55;;;;;;;-2.74;53.24;100558.56;5071734;28;20036;-72
2021/12/28 08:42:07;;;;;;;11.65;5.45;;;;;;;-2.68;53.58;100556.75;5072987;28;20042;-71
2021/12/28 08:44:33;;;;;;;10.60;5.85;;;;;;;-2.66;52.63;100557.59;5072657;28;20033;-72
2021/12/28 08:46:58;;;;;;;8.38;4.93;;;;;;;-2.72;52.89;100553.31;5072735;28;20567;-73
2021/12/28 08:49:26;;;;;;;9.00;5.55;;;;;;;-2.90;54.04;100551.81;5072797;28;20114;-68
2021/12/28 08:51:53;;;;;;;16.58;6.30;;;;;;;-3.34;53.59;100525.28;5072965;28;20040;-71
2021/12/28 08:54:19;;;;;;;11.15;5.28;;;;;;;-3.38;54.36;100550.63;5070787;28;20470;-70
2021/12/28 08:56:46;;;;;;;12.30;5.72;;;;;;;-3.46;54.78;100560.34;5071425;28;20040;-68
2021/12/28 08:59:13;;;;;;;12.30;5.85;;;;;;;-3.51;54.89;100564.75;5072710;28;20032;-69
2021/12/28 09:01:39;;;;;;;10.88;5.25;;;;;;;-3.63;55.06;100557.91;5072410;28;20036;-70
2021/12/28 09:04:05;;;;;;;11.48;5.80;;;;;;;-3.64;55.20;100564.03;5070025;28;20052;-69
2021/12/28 09:06:31;;;;;;;14.40;5.57;;;;;;;-3.67;55.77;100559.69;5071531;28;20081;-71
2021/12/28 09:08:56;;;;;;;13.55;5.85;;;;;;;-3.71;55.50;100564.97;5072244;28;20028;-71
2021/12/28 09:11:22;;;;;;;12.10;5.80;;;;;;;-3.97;55.56;100522.47;5054467;28;20028;-68
2021/12/28 09:13:47;;;;;;;12.80;6.47;;;;;;;-3.79;55.90;100570.28;5071847;28;20377;-70
2021/12/28 09:16:13;;;;;;;13.35;5.88;;;;;;;-3.85;55.44;100568.56;5072304;28;20025;-67
2021/12/28 09:18:39;;;;;;;10.35;5.65;;;;;;;-3.83;55.61;100566.81;5072590;28;20393;-70
2021/12/28 09:21:05;;;;;;;11.70;5.85;;;;;;;-3.85;56.08;100568.56;5072082;28;20043;-71
2021/12/28 09:23:31;;;;;;;12.70;6.25;;;;;;;-3.90;55.41;100566.00;5071924;28;20029;-72
2021/12/28 09:26:04;;;;;;;9.50;5.72;;;;;;;-3.93;55.56;100560.78;5071163;28;20589;-68
2021/12/28 09:28:29;;;;;;;10.27;6.30;;;;;;;-3.96;55.78;100571.28;5074448;28;20530;-71
2021/12/28 09:30:55;;;;;;;11.85;6.78;;;;;;;-3.95;56.08;100569.56;5071306;28;20033;-70
2021/12/28 09:33:20;;;;;;;14.07;6.25;;;;;;;-3.98;56.26;100578.28;5069892;28;20044;-69
2021/12/28 09:35:46;;;;;;;12.45;6.55;;;;;;;-4.00;56.17;100577.44;5069458;28;20674;-67
2021/12/28 09:38:11;;;;;;;12.27;6.18;;;;;;;-4.01;56.25;100577.44;5071322;28;20037;-67
2021/12/28 09:40:38;;;;;;;11.70;6.30;;;;;;;-4.09;56.38;100573.13;5069773;28;20032;-70
2021/12/28 09:43:06;;;;;;;11.93;6.13;;;;;;;-4.12;56.27;100572.28;5070541;28;20052;-68
2021/12/28 09:45:33;;;;;;;12.85;5.97;;;;;;;-4.12;56.35;100574.91;5069498;28;20028;-67
2021/12/28 09:47:58;;;;;;;10.93;6.45;;;;;;;-4.19;55.97;100574.09;5071112;28;20410;-69
2021/12/28 09:50:25;;;;;;;11.90;6.10;;;;;;;-4.25;56.17;100569.78;5070832;28;20050;-70
2021/12/28 09:52:51;;;;;;;12.73;6.53;;;;;;;-4.24;56.70;100587.22;5069300;28;20052;-68
2021/12/28 09:55:23;;;;;;;13.85;6.40;;;;;;;-4.28;56.58;100580.28;5069752;28;20058;-69
2021/12/28 09:57:50;;;;;;;10.27;6.25;;;;;;;-4.33;56.79;100574.22;5054600;28;20420;-69
2021/12/28 10:00:17;;;;;;;14.55;5.85;;;;;;;-4.32;56.53;100583.78;5070375;28;20024;-65
2021/12/28 10:02:43;;;;;;;13.30;5.68;;;;;;;-4.32;57.07;100589.03;5071212;28;20029;-68
2021/12/28 10:05:14;;;;;;;11.52;5.78;;;;;;;-4.33;57.10;100600.34;5071191;28;20028;-70
2021/12/28 10:07:47;;;;;;;10.18;6.10;;;;;;;-4.32;56.77;100600.31;5070765;28;20493;-69
2021/12/28 10:10:13;;;;;;;12.57;5.78;;;;;;;-4.31;56.87;100606.44;5071407;28;20390;-67
2021/12/28 10:12:44;;;;;;;14.98;6.35;;;;;;;-4.29;57.16;100607.28;5071098;28;20033;-70
2021/12/28 10:15:17;;;;;;;12.63;6.07;;;;;;;-4.26;56.69;100606.38;5069057;28;20107;-68
2021/12/28 10:17:44;;;;;;;12.48;6.47;;;;;;;-4.34;56.51;100595.97;5070012;28;20021;-69
2021/12/28 10:20:19;;;;;;;14.82;6.70;;;;;;;-4.24;56.54;100599.41;5069571;28;20028;-68
2021/12/28 10:22:53;;;;;;;11.07;6.03;;;;;;;-4.16;57.04;100615.91;5079636;28;20502;-68
2021/12/28 10:25:29;;;;;;;10.38;6.28;;;;;;;-4.11;56.63;100610.63;5070456;28;20385;-69
2021/12/28 10:28:05;;;;;;;11.73;6.07;;;;;;;-4.09;56.40;100616.75;5056011;28;20133;-68
2021/12/28 10:30:52;;;;;;;12.95;6.00;;;;;;;-4.10;56.31;100617.59;5070291;28;20111;-68
2021/12/28 10:33:21;;;;;;;11.75;5.50;;;;;;;-4.04;56.17;100620.19;5070038;28;20048;-67
2021/12/28 10:35:58;;;;;;;12.45;5.93;;;;;;;-4.10;56.18;100600.19;5054750;28;20497;-69
2021/12/28 10:38:31;;;;;;;14.45;5.75;;;;;;;-4.00;55.48;100614.06;5070434;28;20468;-69
2021/12/28 10:41:06;;;;;;;10.93;5.63;;;;;;;-3.95;55.04;100620.09;5070346;28;20057;-71
2021/12/28 10:43:33;;;;;;;;;;;;;;;-3.78;56.23;100616.50;5071036;28;20024;-68
2021/12/28 10:46:07;;;;;;;8.68;4.82;;;;;;;-3.88;55.73;100618.31;5069972;28;19974;-68
2021/12/28 10:48:45;;;;;;;11.18;5.75;;;;;;;-3.95;55.12;100614.88;5069919;28;20088;-69
2021/12/28 10:51:15;;;;;;;9.35;5.45;;;;;;;-3.92;55.69;100619.22;5073122;28;20107;-69
2021/12/28 10:56:37;;;;;;;13.15;5.68;;;;;;;-3.91;55.51;100619.19;5070379;28;20025;-67
2021/12/28 10:59:06;;;;;;;10.35;5.95;;;;;;;-3.90;54.73;100609.63;5070114;28;20046;-69
2021/12/28 11:01:34;;;;;;;12.25;5.70;;;;;;;-3.90;54.77;100626.16;5069074;28;20040;-69
2021/12/28 11:04:12;;;;;;;11.90;5.63;;;;;;;-3.91;54.88;100620.97;5068802;28;20470;-71
2021/12/28 11:06:45;;;;;;;12.55;5.78;;;;;;;-3.90;54.59;100623.56;5070124;28;20119;-66
2021/12/28 11:09:15;;;;;;;21.63;11.50;;;;;;;-3.92;54.83;100617.47;5069446;28;20119;-73
2021/12/28 11:11:41;;;;;;;12.20;6.55;;;;;;;-3.92;55.00;100621.84;5051332;28;20112;-71
2021/12/28 11:14:10;;;;;;;9.85;5.82;;;;;;;-3.93;55.29;100613.13;5069431;28;20038;-70
2021/12/28 11:16:37;;;;;;;9.95;5.72;;;;;;;-3.93;55.49;100618.34;5069712;28;20041;-69
2021/12/28 11:19:06;;;;;;;11.68;5.90;;;;;;;-3.99;55.55;100600.09;5062912;28;20547;-72
2021/12/28 11:21:35;;;;;;;10.18;5.32;;;;;;;-3.94;55.02;100611.38;5069330;28;20029;-73
2021/12/28 11:24:05;;;;;;;11.02;5.47;;;;;;;-3.94;54.67;100615.75;5069944;28;20060;-72